sensor_id;sensor_type;location;lat;lon;timestamp;P1;durP1;ratioP1;P2;durP2;ratioP2
45065;SDS011;30830;53.704;10.004;2023-08-24T00:00:11;4.47;;;3.17;;
45065;SDS011;30830;53.704;10.004;2023-08-24T00:02:37;2.83;;;2.38;;
45065;SDS011;30830;53.704;10.004;2023-08-24T00:05:03;5.43;;;3.45;;
45065;SDS011;30830;53.704;10.004;2023-08-24T00:07:29;2.85;;;2.25;;
45065;SDS011;30830;53.704;10.004;2023-08-24T00:09:54;2.90;;;2.70;;
45065;SDS011;30830;53.704;10.004;2023-08-24T00:12:20;3.33;;;2.42;;
45065;SDS011;30830;53.704;10.004;2023-08-24T00:14:45;3.45;;;3.13;;
45065;SDS011;30830;53.704;10.004;2023-08-24T00:17:11;6.05;;;3.10;;
45065;SDS011;30830;53.704;10.004;2023-08-24T00:19:36;2.90;;;2.70;;
45065;SDS011;30830;53.704;10.004;2023-08-24T00:22:02;3.17;;;2.40;;
45065;SDS011;30830;53.704;10.004;2023-08-24T00:24:29;3.95;;;2.58;;
45065;SDS011;30830;53.704;10.004;2023-08-24T00:26:54;4.43;;;2.28;;
45065;SDS011;30830;53.704;10.004;2023-08-24T00:29:20;2.92;;;2.28;;
45065;SDS011;30830;53.704;10.004;2023-08-24T00:31:46;2.50;;;2.30;;
45065;SDS011;30830;53.704;10.004;2023-08-24T00:34:12;3.40;;;2.47;;
45065;SDS011;30830;53.704;10.004;2023-08-24T00:36:38;5.40;;;2.72;;
45065;SDS011;30830;53.704;10.004;2023-08-24T00:39:04;3.58;;;2.58;;
45065;SDS011;30830;53.704;10.004;2023-08-24T00:41:31;4.60;;;2.88;;
45065;SDS011;30830;53.704;10.004;2023-08-24T00:43:57;4.28;;;2.83;;
45065;SDS011;30830;53.704;10.004;2023-08-24T00:46:22;4.55;;;2.70;;
45065;SDS011;30830;53.704;10.004;2023-08-24T00:48:51;3.95;;;2.97;;
45065;SDS011;30830;53.704;10.004;2023-08-24T00:51:18;4.03;;;2.40;;
45065;SDS011;30830;53.704;10.004;2023-08-24T00:53:44;4.65;;;2.97;;
45065;SDS011;30830;53.704;10.004;2023-08-24T00:56:11;4.68;;;2.90;;
45065;SDS011;30830;53.704;10.004;2023-08-24T00:58:36;3.88;;;3.28;;
45065;SDS011;30830;53.704;10.004;2023-08-24T01:01:03;5.15;;;2.83;;
45065;SDS011;30830;53.704;10.004;2023-08-24T01:03:29;4.35;;;3.55;;
45065;SDS011;30830;53.704;10.004;2023-08-24T01:05:55;4.88;;;3.50;;
45065;SDS011;30830;53.704;10.004;2023-08-24T01:08:21;3.15;;;2.70;;
45065;SDS011;30830;53.704;10.004;2023-08-24T01:10:54;3.25;;;2.80;;
45065;SDS011;30830;53.704;10.004;2023-08-24T01:13:30;3.55;;;3.25;;
45065;SDS011;30830;53.704;10.004;2023-08-24T01:16:13;3.50;;;3.20;;
45065;SDS011;30830;53.704;10.004;2023-08-24T01:18:52;7.03;;;4.20;;
45065;SDS011;30830;53.704;10.004;2023-08-24T01:21:25;8.02;;;3.22;;
45065;SDS011;30830;53.704;10.004;2023-08-24T01:26:42;3.67;;;3.00;;
45065;SDS011;30830;53.704;10.004;2023-08-24T01:29:09;3.08;;;2.60;;
45065;SDS011;30830;53.704;10.004;2023-08-24T01:31:35;2.90;;;2.50;;
45065;SDS011;30830;53.704;10.004;2023-08-24T01:34:00;3.42;;;3.00;;
45065;SDS011;30830;53.704;10.004;2023-08-24T01:36:26;5.18;;;2.97;;
45065;SDS011;30830;53.704;10.004;2023-08-24T01:38:59;3.92;;;2.63;;
45065;SDS011;30830;53.704;10.004;2023-08-24T01:41:33;5.50;;;3.38;;
45065;SDS011;30830;53.704;10.004;2023-08-24T01:44:03;4.00;;;2.95;;
45065;SDS011;30830;53.704;10.004;2023-08-24T01:46:31;6.40;;;3.25;;
45065;SDS011;30830;53.704;10.004;2023-08-24T01:48:58;3.40;;;2.78;;
45065;SDS011;30830;53.704;10.004;2023-08-24T01:51:24;4.38;;;2.83;;
45065;SDS011;30830;53.704;10.004;2023-08-24T01:53:50;4.07;;;2.90;;
45065;SDS011;30830;53.704;10.004;2023-08-24T01:56:17;3.17;;;2.80;;
45065;SDS011;30830;53.704;10.004;2023-08-24T01:58:43;4.60;;;3.42;;
45065;SDS011;30830;53.704;10.004;2023-08-24T02:01:08;5.97;;;3.20;;
45065;SDS011;30830;53.704;10.004;2023-08-24T02:03:35;9.50;;;3.53;;
45065;SDS011;30830;53.704;10.004;2023-08-24T02:06:01;4.20;;;3.20;;
45065;SDS011;30830;53.704;10.004;2023-08-24T02:08:26;3.53;;;3.20;;
45065;SDS011;30830;53.704;10.004;2023-08-24T02:10:52;4.05;;;2.88;;
45065;SDS011;30830;53.704;10.004;2023-08-24T02:13:18;3.00;;;2.45;;
45065;SDS011;30830;53.704;10.004;2023-08-24T02:15:43;8.75;;;3.65;;
45065;SDS011;30830;53.704;10.004;2023-08-24T02:18:09;6.40;;;2.67;;
45065;SDS011;30830;53.704;10.004;2023-08-24T02:20:35;4.20;;;3.28;;
45065;SDS011;30830;53.704;10.004;2023-08-24T02:23:01;6.57;;;3.58;;
45065;SDS011;30830;53.704;10.004;2023-08-24T02:25:27;4.40;;;3.40;;
45065;SDS011;30830;53.704;10.004;2023-08-24T02:27:53;8.88;;;3.38;;
45065;SDS011;30830;53.704;10.004;2023-08-24T02:30:19;6.40;;;3.13;;
45065;SDS011;30830;53.704;10.004;2023-08-24T02:32:44;6.95;;;3.30;;
45065;SDS011;30830;53.704;10.004;2023-08-24T02:35:10;4.72;;;2.97;;
45065;SDS011;30830;53.704;10.004;2023-08-24T02:37:35;3.75;;;3.30;;
45065;SDS011;30830;53.704;10.004;2023-08-24T02:40:01;4.20;;;2.85;;
45065;SDS011;30830;53.704;10.004;2023-08-24T02:42:29;4.60;;;3.60;;
45065;SDS011;30830;53.704;10.004;2023-08-24T02:44:55;5.30;;;3.22;;
45065;SDS011;30830;53.704;10.004;2023-08-24T02:47:21;7.53;;;4.28;;
45065;SDS011;30830;53.704;10.004;2023-08-24T02:49:46;9.63;;;4.78;;
45065;SDS011;30830;53.704;10.004;2023-08-24T02:52:12;4.05;;;3.47;;
45065;SDS011;30830;53.704;10.004;2023-08-24T02:54:37;4.95;;;3.72;;
45065;SDS011;30830;53.704;10.004;2023-08-24T02:57:03;5.72;;;3.28;;
45065;SDS011;30830;53.704;10.004;2023-08-24T02:59:28;4.68;;;3.50;;
45065;SDS011;30830;53.704;10.004;2023-08-24T03:01:54;3.67;;;3.13;;
45065;SDS011;30830;53.704;10.004;2023-08-24T03:04:20;7.00;;;3.78;;
45065;SDS011;30830;53.704;10.004;2023-08-24T03:06:46;5.25;;;4.25;;
45065;SDS011;30830;53.704;10.004;2023-08-24T03:09:11;4.93;;;4.00;;
45065;SDS011;30830;53.704;10.004;2023-08-24T03:11:37;5.30;;;3.90;;
45065;SDS011;30830;53.704;10.004;2023-08-24T03:14:03;4.03;;;3.50;;
45065;SDS011;30830;53.704;10.004;2023-08-24T03:16:29;4.60;;;3.63;;
45065;SDS011;30830;53.704;10.004;2023-08-24T03:18:54;4.13;;;3.72;;
45065;SDS011;30830;53.704;10.004;2023-08-24T03:21:20;3.75;;;3.45;;
45065;SDS011;30830;53.704;10.004;2023-08-24T03:23:46;7.43;;;4.95;;
45065;SDS011;30830;53.704;10.004;2023-08-24T03:26:11;5.47;;;4.97;;
45065;SDS011;30830;53.704;10.004;2023-08-24T03:28:37;6.10;;;4.93;;
45065;SDS011;30830;53.704;10.004;2023-08-24T03:31:03;6.03;;;4.40;;
45065;SDS011;30830;53.704;10.004;2023-08-24T03:33:28;5.72;;;4.68;;
45065;SDS011;30830;53.704;10.004;2023-08-24T03:35:54;5.97;;;4.90;;
45065;SDS011;30830;53.704;10.004;2023-08-24T03:38:19;7.30;;;5.22;;
45065;SDS011;30830;53.704;10.004;2023-08-24T03:40:45;6.28;;;4.15;;
45065;SDS011;30830;53.704;10.004;2023-08-24T03:43:11;6.13;;;5.00;;
45065;SDS011;30830;53.704;10.004;2023-08-24T03:45:36;4.38;;;3.97;;
45065;SDS011;30830;53.704;10.004;2023-08-24T03:48:02;6.28;;;4.55;;
45065;SDS011;30830;53.704;10.004;2023-08-24T03:50:28;5.47;;;4.50;;
45065;SDS011;30830;53.704;10.004;2023-08-24T03:52:53;4.00;;;3.50;;
45065;SDS011;30830;53.704;10.004;2023-08-24T03:55:19;5.80;;;5.03;;
45065;SDS011;30830;53.704;10.004;2023-08-24T03:57:45;8.75;;;5.70;;
45065;SDS011;30830;53.704;10.004;2023-08-24T04:00:11;4.70;;;3.70;;
45065;SDS011;30830;53.704;10.004;2023-08-24T04:02:43;4.43;;;3.47;;
45065;SDS011;30830;53.704;10.004;2023-08-24T04:05:09;5.00;;;3.92;;
45065;SDS011;30830;53.704;10.004;2023-08-24T04:07:35;4.97;;;4.15;;
45065;SDS011;30830;53.704;10.004;2023-08-24T04:10:05;4.07;;;3.67;;
45065;SDS011;30830;53.704;10.004;2023-08-24T04:12:31;3.20;;;2.90;;
45065;SDS011;30830;53.704;10.004;2023-08-24T04:14:57;3.65;;;2.92;;
45065;SDS011;30830;53.704;10.004;2023-08-24T04:17:23;3.45;;;3.13;;
45065;SDS011;30830;53.704;10.004;2023-08-24T04:19:49;7.97;;;3.45;;
45065;SDS011;30830;53.704;10.004;2023-08-24T04:22:15;5.10;;;4.22;;
45065;SDS011;30830;53.704;10.004;2023-08-24T04:24:41;5.30;;;4.32;;
45065;SDS011;30830;53.704;10.004;2023-08-24T04:27:06;4.90;;;3.85;;
45065;SDS011;30830;53.704;10.004;2023-08-24T04:29:32;6.65;;;4.32;;
45065;SDS011;30830;53.704;10.004;2023-08-24T04:31:57;4.32;;;3.88;;
45065;SDS011;30830;53.704;10.004;2023-08-24T04:34:23;5.72;;;4.07;;
45065;SDS011;30830;53.704;10.004;2023-08-24T04:36:49;6.28;;;4.35;;
45065;SDS011;30830;53.704;10.004;2023-08-24T04:39:14;4.20;;;3.80;;
45065;SDS011;30830;53.704;10.004;2023-08-24T04:41:40;6.72;;;3.85;;
45065;SDS011;30830;53.704;10.004;2023-08-24T04:44:06;7.88;;;4.72;;
45065;SDS011;30830;53.704;10.004;2023-08-24T04:46:33;5.40;;;4.07;;
45065;SDS011;30830;53.704;10.004;2023-08-24T04:48:58;4.35;;;3.88;;
45065;SDS011;30830;53.704;10.004;2023-08-24T04:51:24;5.28;;;4.07;;
45065;SDS011;30830;53.704;10.004;2023-08-24T04:53:52;4.13;;;3.60;;
45065;SDS011;30830;53.704;10.004;2023-08-24T04:56:18;4.68;;;3.80;;
45065;SDS011;30830;53.704;10.004;2023-08-24T04:58:54;5.68;;;3.42;;
45065;SDS011;30830;53.704;10.004;2023-08-24T05:01:22;5.97;;;3.63;;
45065;SDS011;30830;53.704;10.004;2023-08-24T05:03:50;5.45;;;3.70;;
45065;SDS011;30830;53.704;10.004;2023-08-24T05:06:16;4.28;;;3.58;;
45065;SDS011;30830;53.704;10.004;2023-08-24T05:08:42;4.70;;;4.25;;
45065;SDS011;30830;53.704;10.004;2023-08-24T05:11:11;4.30;;;3.72;;
45065;SDS011;30830;53.704;10.004;2023-08-24T05:13:38;4.45;;;3.55;;
45065;SDS011;30830;53.704;10.004;2023-08-24T05:16:04;4.07;;;3.20;;
45065;SDS011;30830;53.704;10.004;2023-08-24T05:18:30;4.35;;;3.95;;
45065;SDS011;30830;53.704;10.004;2023-08-24T05:20:55;5.25;;;3.90;;
45065;SDS011;30830;53.704;10.004;2023-08-24T05:23:21;4.60;;;4.20;;
45065;SDS011;30830;53.704;10.004;2023-08-24T05:25:46;5.70;;;4.43;;
45065;SDS011;30830;53.704;10.004;2023-08-24T05:28:12;3.88;;;3.45;;
45065;SDS011;30830;53.704;10.004;2023-08-24T05:30:38;4.75;;;3.72;;
45065;SDS011;30830;53.704;10.004;2023-08-24T05:33:03;5.43;;;4.47;;
45065;SDS011;30830;53.704;10.004;2023-08-24T05:35:29;6.55;;;4.13;;
45065;SDS011;30830;53.704;10.004;2023-08-24T05:37:54;5.30;;;4.13;;
45065;SDS011;30830;53.704;10.004;2023-08-24T05:40:20;4.05;;;3.58;;
45065;SDS011;30830;53.704;10.004;2023-08-24T05:42:45;6.43;;;4.32;;
45065;SDS011;30830;53.704;10.004;2023-08-24T05:45:11;5.35;;;4.22;;
45065;SDS011;30830;53.704;10.004;2023-08-24T05:47:37;4.68;;;4.07;;
45065;SDS011;30830;53.704;10.004;2023-08-24T05:50:02;5.43;;;3.70;;
45065;SDS011;30830;53.704;10.004;2023-08-24T05:52:28;4.60;;;3.53;;
45065;SDS011;30830;53.704;10.004;2023-08-24T05:54:54;4.35;;;3.90;;
45065;SDS011;30830;53.704;10.004;2023-08-24T05:57:19;5.13;;;4.40;;
45065;SDS011;30830;53.704;10.004;2023-08-24T05:59:45;6.43;;;4.20;;
45065;SDS011;30830;53.704;10.004;2023-08-24T06:02:10;6.30;;;4.28;;
45065;SDS011;30830;53.704;10.004;2023-08-24T06:04:36;6.88;;;5.00;;
45065;SDS011;30830;53.704;10.004;2023-08-24T06:07:01;8.00;;;4.15;;
45065;SDS011;30830;53.704;10.004;2023-08-24T06:09:29;5.88;;;4.50;;
45065;SDS011;30830;53.704;10.004;2023-08-24T06:11:55;9.45;;;5.15;;
45065;SDS011;30830;53.704;10.004;2023-08-24T06:14:20;4.68;;;3.78;;
45065;SDS011;30830;53.704;10.004;2023-08-24T06:16:46;3.67;;;3.28;;
45065;SDS011;30830;53.704;10.004;2023-08-24T06:19:13;5.70;;;4.00;;
45065;SDS011;30830;53.704;10.004;2023-08-24T06:21:39;5.43;;;4.13;;
45065;SDS011;30830;53.704;10.004;2023-08-24T06:24:04;4.07;;;3.65;;
45065;SDS011;30830;53.704;10.004;2023-08-24T06:26:30;4.07;;;3.13;;
45065;SDS011;30830;53.704;10.004;2023-08-24T06:28:56;3.20;;;2.60;;
45065;SDS011;30830;53.704;10.004;2023-08-24T06:31:21;3.65;;;3.33;;
45065;SDS011;30830;53.704;10.004;2023-08-24T06:33:47;7.43;;;4.90;;
45065;SDS011;30830;53.704;10.004;2023-08-24T06:36:14;3.92;;;3.10;;
45065;SDS011;30830;53.704;10.004;2023-08-24T06:38:39;4.32;;;3.83;;
45065;SDS011;30830;53.704;10.004;2023-08-24T06:41:05;5.38;;;3.65;;
45065;SDS011;30830;53.704;10.004;2023-08-24T06:43:30;4.00;;;3.60;;
45065;SDS011;30830;53.704;10.004;2023-08-24T06:45:56;5.30;;;2.88;;
45065;SDS011;30830;53.704;10.004;2023-08-24T06:48:21;4.40;;;3.22;;
45065;SDS011;30830;53.704;10.004;2023-08-24T06:50:47;2.80;;;2.20;;
45065;SDS011;30830;53.704;10.004;2023-08-24T06:53:13;2.97;;;2.03;;
45065;SDS011;30830;53.704;10.004;2023-08-24T06:55:39;2.05;;;1.85;;
45065;SDS011;30830;53.704;10.004;2023-08-24T06:58:05;2.83;;;1.85;;
45065;SDS011;30830;53.704;10.004;2023-08-24T07:00:31;1.70;;;1.60;;
45065;SDS011;30830;53.704;10.004;2023-08-24T07:02:57;2.00;;;1.50;;
45065;SDS011;30830;53.704;10.004;2023-08-24T07:05:22;1.33;;;1.15;;
45065;SDS011;30830;53.704;10.004;2023-08-24T07:07:51;2.72;;;0.85;;
45065;SDS011;30830;53.704;10.004;2023-08-24T07:10:18;3.10;;;1.10;;
45065;SDS011;30830;53.704;10.004;2023-08-24T07:12:44;3.45;;;1.17;;
45065;SDS011;30830;53.704;10.004;2023-08-24T07:15:13;2.95;;;1.55;;
45065;SDS011;30830;53.704;10.004;2023-08-24T07:17:39;2.97;;;1.00;;
45065;SDS011;30830;53.704;10.004;2023-08-24T07:20:05;2.33;;;1.30;;
45065;SDS011;30830;53.704;10.004;2023-08-24T07:22:32;1.63;;;1.10;;
45065;SDS011;30830;53.704;10.004;2023-08-24T07:24:58;1.58;;;0.98;;
45065;SDS011;30830;53.704;10.004;2023-08-24T07:27:25;1.20;;;1.05;;
45065;SDS011;30830;53.704;10.004;2023-08-24T07:29:50;2.17;;;1.00;;
45065;SDS011;30830;53.704;10.004;2023-08-24T07:32:16;1.48;;;1.10;;
45065;SDS011;30830;53.704;10.004;2023-08-24T07:34:41;2.35;;;1.30;;
45065;SDS011;30830;53.704;10.004;2023-08-24T07:37:07;1.05;;;0.82;;
45065;SDS011;30830;53.704;10.004;2023-08-24T07:39:32;3.17;;;1.00;;
45065;SDS011;30830;53.704;10.004;2023-08-24T07:41:58;5.18;;;1.27;;
45065;SDS011;30830;53.704;10.004;2023-08-24T07:44:24;1.60;;;0.80;;
45065;SDS011;30830;53.704;10.004;2023-08-24T07:46:50;2.15;;;0.80;;
45065;SDS011;30830;53.704;10.004;2023-08-24T07:49:15;1.85;;;0.88;;
45065;SDS011;30830;53.704;10.004;2023-08-24T07:51:41;4.43;;;0.98;;
45065;SDS011;30830;53.704;10.004;2023-08-24T07:54:08;1.63;;;0.80;;
45065;SDS011;30830;53.704;10.004;2023-08-24T07:56:33;1.95;;;1.05;;
45065;SDS011;30830;53.704;10.004;2023-08-24T07:58:59;2.22;;;0.70;;
45065;SDS011;30830;53.704;10.004;2023-08-24T08:01:25;1.05;;;0.82;;
45065;SDS011;30830;53.704;10.004;2023-08-24T08:03:50;2.95;;;0.70;;
45065;SDS011;30830;53.704;10.004;2023-08-24T08:06:16;1.58;;;0.70;;
45065;SDS011;30830;53.704;10.004;2023-08-24T08:08:41;1.60;;;0.98;;
45065;SDS011;30830;53.704;10.004;2023-08-24T08:11:07;2.40;;;0.90;;
45065;SDS011;30830;53.704;10.004;2023-08-24T08:13:32;1.13;;;0.70;;
45065;SDS011;30830;53.704;10.004;2023-08-24T08:16:02;1.55;;;0.90;;
45065;SDS011;30830;53.704;10.004;2023-08-24T08:18:29;1.15;;;0.65;;
45065;SDS011;30830;53.704;10.004;2023-08-24T08:20:54;3.50;;;0.63;;
45065;SDS011;30830;53.704;10.004;2023-08-24T08:23:20;1.35;;;0.70;;
45065;SDS011;30830;53.704;10.004;2023-08-24T08:25:45;2.72;;;0.90;;
45065;SDS011;30830;53.704;10.004;2023-08-24T08:28:11;2.20;;;0.60;;
45065;SDS011;30830;53.704;10.004;2023-08-24T08:30:36;2.45;;;1.00;;
45065;SDS011;30830;53.704;10.004;2023-08-24T08:33:02;1.88;;;1.13;;
45065;SDS011;30830;53.704;10.004;2023-08-24T08:35:28;3.95;;;0.90;;
45065;SDS011;30830;53.704;10.004;2023-08-24T08:37:54;0.65;;;0.50;;
45065;SDS011;30830;53.704;10.004;2023-08-24T08:40:19;2.03;;;0.70;;
45065;SDS011;30830;53.704;10.004;2023-08-24T08:42:45;1.15;;;0.60;;
45065;SDS011;30830;53.704;10.004;2023-08-24T08:45:11;2.03;;;0.70;;
45065;SDS011;30830;53.704;10.004;2023-08-24T08:47:37;1.83;;;0.90;;
45065;SDS011;30830;53.704;10.004;2023-08-24T08:50:04;0.80;;;0.60;;
45065;SDS011;30830;53.704;10.004;2023-08-24T08:52:31;0.77;;;0.60;;
45065;SDS011;30830;53.704;10.004;2023-08-24T08:54:57;1.33;;;0.60;;
45065;SDS011;30830;53.704;10.004;2023-08-24T08:57:23;0.90;;;0.57;;
45065;SDS011;30830;53.704;10.004;2023-08-24T08:59:51;1.35;;;0.50;;
45065;SDS011;30830;53.704;10.004;2023-08-24T09:02:18;3.03;;;1.00;;
45065;SDS011;30830;53.704;10.004;2023-08-24T09:04:45;2.85;;;0.77;;
45065;SDS011;30830;53.704;10.004;2023-08-24T09:07:13;0.50;;;0.45;;
45065;SDS011;30830;53.704;10.004;2023-08-24T09:09:38;1.42;;;0.63;;
45065;SDS011;30830;53.704;10.004;2023-08-24T09:12:07;1.98;;;1.02;;
45065;SDS011;30830;53.704;10.004;2023-08-24T09:14:34;2.25;;;0.80;;
45065;SDS011;30830;53.704;10.004;2023-08-24T09:16:59;0.70;;;0.70;;
45065;SDS011;30830;53.704;10.004;2023-08-24T09:19:29;1.50;;;0.80;;
45065;SDS011;30830;53.704;10.004;2023-08-24T09:22:00;1.67;;;0.80;;
45065;SDS011;30830;53.704;10.004;2023-08-24T09:24:30;1.83;;;0.73;;
45065;SDS011;30830;53.704;10.004;2023-08-24T09:26:57;4.28;;;1.20;;
45065;SDS011;30830;53.704;10.004;2023-08-24T09:29:22;4.68;;;0.90;;
45065;SDS011;30830;53.704;10.004;2023-08-24T09:31:50;2.63;;;0.90;;
45065;SDS011;30830;53.704;10.004;2023-08-24T09:34:18;1.98;;;0.80;;
45065;SDS011;30830;53.704;10.004;2023-08-24T09:36:51;3.63;;;1.30;;
45065;SDS011;30830;53.704;10.004;2023-08-24T09:39:17;1.10;;;0.90;;
45065;SDS011;30830;53.704;10.004;2023-08-24T09:41:44;2.90;;;0.90;;
45065;SDS011;30830;53.704;10.004;2023-08-24T09:44:14;0.60;;;0.52;;
45065;SDS011;30830;53.704;10.004;2023-08-24T09:46:42;1.73;;;1.20;;
45065;SDS011;30830;53.704;10.004;2023-08-24T09:49:09;2.85;;;1.48;;
45065;SDS011;30830;53.704;10.004;2023-08-24T09:51:36;3.65;;;1.38;;
45065;SDS011;30830;53.704;10.004;2023-08-24T09:54:07;2.38;;;1.65;;
45065;SDS011;30830;53.704;10.004;2023-08-24T09:56:38;6.22;;;2.03;;
45065;SDS011;30830;53.704;10.004;2023-08-24T09:59:07;8.02;;;2.30;;
45065;SDS011;30830;53.704;10.004;2023-08-24T10:01:40;4.28;;;1.60;;
45065;SDS011;30830;53.704;10.004;2023-08-24T10:04:09;3.42;;;1.42;;
45065;SDS011;30830;53.704;10.004;2023-08-24T10:06:35;2.92;;;1.45;;
45065;SDS011;30830;53.704;10.004;2023-08-24T10:09:01;5.22;;;1.50;;
45065;SDS011;30830;53.704;10.004;2023-08-24T10:11:29;1.92;;;1.70;;
45065;SDS011;30830;53.704;10.004;2023-08-24T10:16:36;4.15;;;1.70;;
45065;SDS011;30830;53.704;10.004;2023-08-24T10:19:04;5.10;;;2.83;;
45065;SDS011;30830;53.704;10.004;2023-08-24T10:21:30;4.82;;;3.13;;
45065;SDS011;30830;53.704;10.004;2023-08-24T10:23:57;2.33;;;1.90;;
45065;SDS011;30830;53.704;10.004;2023-08-24T10:26:23;4.43;;;2.13;;
45065;SDS011;30830;53.704;10.004;2023-08-24T10:28:52;4.45;;;1.90;;
45065;SDS011;30830;53.704;10.004;2023-08-24T10:31:18;3.78;;;2.25;;
45065;SDS011;30830;53.704;10.004;2023-08-24T10:33:45;4.47;;;2.35;;
45065;SDS011;30830;53.704;10.004;2023-08-24T10:36:15;4.32;;;2.03;;
45065;SDS011;30830;53.704;10.004;2023-08-24T10:38:43;3.35;;;2.28;;
45065;SDS011;30830;53.704;10.004;2023-08-24T10:41:08;3.22;;;2.38;;
45065;SDS011;30830;53.704;10.004;2023-08-24T10:43:39;4.25;;;2.35;;
45065;SDS011;30830;53.704;10.004;2023-08-24T10:46:12;3.88;;;1.90;;
45065;SDS011;30830;53.704;10.004;2023-08-24T10:53:39;2.78;;;1.88;;
45065;SDS011;30830;53.704;10.004;2023-08-24T10:56:12;5.05;;;2.10;;
45065;SDS011;30830;53.704;10.004;2023-08-24T10:58:39;2.63;;;2.00;;
45065;SDS011;30830;53.704;10.004;2023-08-24T11:01:04;5.45;;;1.85;;
45065;SDS011;30830;53.704;10.004;2023-08-24T11:03:30;3.22;;;2.20;;
45065;SDS011;30830;53.704;10.004;2023-08-24T11:05:57;3.95;;;1.92;;
45065;SDS011;30830;53.704;10.004;2023-08-24T11:08:43;4.70;;;2.03;;
45065;SDS011;30830;53.704;10.004;2023-08-24T11:16:41;3.78;;;2.47;;
45065;SDS011;30830;53.704;10.004;2023-08-24T11:19:08;2.75;;;2.05;;
45065;SDS011;30830;53.704;10.004;2023-08-24T11:21:36;5.47;;;2.17;;
45065;SDS011;30830;53.704;10.004;2023-08-24T11:24:04;4.15;;;1.95;;
45065;SDS011;30830;53.704;10.004;2023-08-24T11:26:30;3.03;;;1.75;;
45065;SDS011;30830;53.704;10.004;2023-08-24T11:28:56;5.22;;;2.50;;
45065;SDS011;30830;53.704;10.004;2023-08-24T11:31:23;5.10;;;2.78;;
45065;SDS011;30830;53.704;10.004;2023-08-24T11:33:53;2.08;;;1.70;;
45065;SDS011;30830;53.704;10.004;2023-08-24T11:36:20;4.03;;;1.63;;
45065;SDS011;30830;53.704;10.004;2023-08-24T11:38:48;4.38;;;1.80;;
45065;SDS011;30830;53.704;10.004;2023-08-24T11:41:17;2.20;;;2.00;;
45065;SDS011;30830;53.704;10.004;2023-08-24T11:43:44;3.67;;;2.08;;
45065;SDS011;30830;53.704;10.004;2023-08-24T11:46:12;3.78;;;1.85;;
45065;SDS011;30830;53.704;10.004;2023-08-24T11:48:40;2.40;;;1.73;;
45065;SDS011;30830;53.704;10.004;2023-08-24T11:51:09;6.07;;;2.40;;
45065;SDS011;30830;53.704;10.004;2023-08-24T11:53:38;3.05;;;1.92;;
45065;SDS011;30830;53.704;10.004;2023-08-24T11:56:10;4.18;;;2.05;;
45065;SDS011;30830;53.704;10.004;2023-08-24T11:58:38;2.80;;;1.90;;
45065;SDS011;30830;53.704;10.004;2023-08-24T12:01:05;6.00;;;2.42;;
45065;SDS011;30830;53.704;10.004;2023-08-24T12:03:32;2.88;;;1.80;;
45065;SDS011;30830;53.704;10.004;2023-08-24T12:05:59;2.45;;;1.85;;
45065;SDS011;30830;53.704;10.004;2023-08-24T12:08:37;3.10;;;1.90;;
45065;SDS011;30830;53.704;10.004;2023-08-24T12:11:09;2.03;;;1.58;;
45065;SDS011;30830;53.704;10.004;2023-08-24T12:13:35;3.47;;;1.90;;
45065;SDS011;30830;53.704;10.004;2023-08-24T12:16:02;2.15;;;1.70;;
45065;SDS011;30830;53.704;10.004;2023-08-24T12:18:28;3.22;;;1.80;;
45065;SDS011;30830;53.704;10.004;2023-08-24T12:20:54;3.53;;;1.85;;
45065;SDS011;30830;53.704;10.004;2023-08-24T12:23:20;2.92;;;1.52;;
45065;SDS011;30830;53.704;10.004;2023-08-24T12:25:45;2.38;;;1.55;;
45065;SDS011;30830;53.704;10.004;2023-08-24T12:28:18;3.33;;;1.70;;
45065;SDS011;30830;53.704;10.004;2023-08-24T12:30:47;2.50;;;1.58;;
45065;SDS011;30830;53.704;10.004;2023-08-24T12:35:51;3.80;;;1.73;;
45065;SDS011;30830;53.704;10.004;2023-08-24T12:38:18;2.00;;;1.88;;
45065;SDS011;30830;53.704;10.004;2023-08-24T12:40:44;3.10;;;1.80;;
45065;SDS011;30830;53.704;10.004;2023-08-24T12:43:09;1.83;;;1.58;;
45065;SDS011;30830;53.704;10.004;2023-08-24T12:45:35;4.43;;;2.03;;
45065;SDS011;30830;53.704;10.004;2023-08-24T12:48:02;4.40;;;2.53;;
45065;SDS011;30830;53.704;10.004;2023-08-24T12:50:29;2.97;;;1.58;;
45065;SDS011;30830;53.704;10.004;2023-08-24T12:52:54;2.13;;;1.77;;
45065;SDS011;30830;53.704;10.004;2023-08-24T12:55:24;2.10;;;1.83;;
45065;SDS011;30830;53.704;10.004;2023-08-24T12:57:50;2.58;;;2.03;;
45065;SDS011;30830;53.704;10.004;2023-08-24T13:00:15;2.30;;;1.98;;
45065;SDS011;30830;53.704;10.004;2023-08-24T13:02:41;2.22;;;2.03;;
45065;SDS011;30830;53.704;10.004;2023-08-24T13:05:07;5.53;;;2.20;;
45065;SDS011;30830;53.704;10.004;2023-08-24T13:07:33;3.17;;;1.90;;
45065;SDS011;30830;53.704;10.004;2023-08-24T13:09:59;3.10;;;1.90;;
45065;SDS011;30830;53.704;10.004;2023-08-24T13:12:24;4.05;;;1.90;;
45065;SDS011;30830;53.704;10.004;2023-08-24T13:14:51;4.75;;;2.35;;
45065;SDS011;30830;53.704;10.004;2023-08-24T13:17:16;2.72;;;1.95;;
45065;SDS011;30830;53.704;10.004;2023-08-24T13:19:42;4.63;;;1.83;;
45065;SDS011;30830;53.704;10.004;2023-08-24T13:22:07;1.95;;;1.55;;
45065;SDS011;30830;53.704;10.004;2023-08-24T13:24:33;6.07;;;2.35;;
45065;SDS011;30830;53.704;10.004;2023-08-24T13:26:59;3.17;;;2.00;;
45065;SDS011;30830;53.704;10.004;2023-08-24T13:29:25;3.92;;;1.52;;
45065;SDS011;30830;53.704;10.004;2023-08-24T13:31:51;3.25;;;2.00;;
45065;SDS011;30830;53.704;10.004;2023-08-24T13:34:16;1.52;;;1.42;;
45065;SDS011;30830;53.704;10.004;2023-08-24T13:36:42;2.90;;;1.60;;
45065;SDS011;30830;53.704;10.004;2023-08-24T13:39:08;3.22;;;1.73;;
45065;SDS011;30830;53.704;10.004;2023-08-24T13:41:33;3.45;;;2.10;;
45065;SDS011;30830;53.704;10.004;2023-08-24T13:43:59;2.65;;;1.90;;
45065;SDS011;30830;53.704;10.004;2023-08-24T13:46:24;3.45;;;2.00;;
45065;SDS011;30830;53.704;10.004;2023-08-24T13:48:50;2.38;;;1.58;;
45065;SDS011;30830;53.704;10.004;2023-08-24T13:51:15;4.03;;;2.20;;
45065;SDS011;30830;53.704;10.004;2023-08-24T13:53:41;2.20;;;1.40;;
45065;SDS011;30830;53.704;10.004;2023-08-24T13:56:06;1.83;;;1.70;;
45065;SDS011;30830;53.704;10.004;2023-08-24T13:58:32;2.28;;;1.58;;
45065;SDS011;30830;53.704;10.004;2023-08-24T14:00:58;2.75;;;1.50;;
45065;SDS011;30830;53.704;10.004;2023-08-24T14:03:23;5.43;;;2.05;;
45065;SDS011;30830;53.704;10.004;2023-08-24T14:05:49;1.58;;;1.48;;
45065;SDS011;30830;53.704;10.004;2023-08-24T14:08:19;2.10;;;1.65;;
45065;SDS011;30830;53.704;10.004;2023-08-24T14:10:45;2.90;;;1.90;;
45065;SDS011;30830;53.704;10.004;2023-08-24T14:13:13;2.42;;;1.88;;
45065;SDS011;30830;53.704;10.004;2023-08-24T14:15:39;2.78;;;1.48;;
45065;SDS011;30830;53.704;10.004;2023-08-24T14:18:05;3.47;;;1.92;;
45065;SDS011;30830;53.704;10.004;2023-08-24T14:20:30;1.48;;;1.38;;
45065;SDS011;30830;53.704;10.004;2023-08-24T14:22:56;4.70;;;1.90;;
45065;SDS011;30830;53.704;10.004;2023-08-24T14:25:22;4.50;;;2.08;;
45065;SDS011;30830;53.704;10.004;2023-08-24T14:27:47;6.40;;;2.13;;
45065;SDS011;30830;53.704;10.004;2023-08-24T14:30:15;2.40;;;1.65;;
45065;SDS011;30830;53.704;10.004;2023-08-24T14:32:41;3.55;;;1.73;;
45065;SDS011;30830;53.704;10.004;2023-08-24T14:35:07;2.63;;;1.75;;
45065;SDS011;30830;53.704;10.004;2023-08-24T14:37:33;1.70;;;1.60;;
45065;SDS011;30830;53.704;10.004;2023-08-24T14:39:59;1.63;;;1.52;;
45065;SDS011;30830;53.704;10.004;2023-08-24T14:42:24;1.98;;;1.60;;
45065;SDS011;30830;53.704;10.004;2023-08-24T14:44:50;1.92;;;1.50;;
45065;SDS011;30830;53.704;10.004;2023-08-24T14:47:15;1.70;;;1.60;;